Time;durP1;ratioP1;P1;durP2;ratioP2;P2;SDS_P1;SDS_P2;PMS_P1;PMS_P2;Temp;Humidity;BMP_temperature;BMP_pressure;BME280_temperature;BME280_humidity;BME280_pressure;Samples;Min_cycle;Max_cycle;Signal;HPM_P1;HPM_P2
2023/12/13 00:00:09;;;;;;;6.63;1.40;;;;;;;9.91;84.67;99127.16;4108355;28;20152;-72
2023/12/13 00:02:14;;;;;;;4.13;1.30;;;;;;;9.85;84.70;99119.41;4111312;28;20176;-73
2023/12/13 00:04:19;;;;;;;2.33;1.30;;;;;;;9.88;84.54;99120.25;4111092;28;20042;-73
2023/12/13 00:06:22;;;;;;;4.15;1.60;;;;;;;9.90;84.23;99120.25;4111337;28;20520;-74
2023/12/13 00:08:24;;;;;;;5.20;1.90;;;;;;;9.91;84.04;99114.19;4143972;28;20053;-73
2023/12/13 00:10:28;;;;;;;4.65;1.85;;;;;;;9.87;83.87;99108.16;4127856;28;20065;-73
2023/12/13 00:12:32;;;;;;;4.10;1.60;;;;;;;9.88;84.57;99109.00;4128560;28;20096;-73
2023/12/13 00:14:35;;;;;;;5.13;1.80;;;;;;;9.90;84.58;99112.44;4112370;28;20035;-73
2023/12/13 00:16:37;;;;;;;4.75;1.77;;;;;;;9.89;84.20;99110.75;4112689;28;20118;-73
2023/12/13 00:18:41;;;;;;;7.93;2.47;;;;;;;9.94;84.01;99103.78;4127609;28;20393;-73
2023/12/13 00:20:44;;;;;;;6.10;2.22;;;;;;;9.89;84.62;99106.41;4111642;28;20034;-73
2023/12/13 00:22:47;;;;;;;5.40;2.50;;;;;;;9.87;84.05;99117.66;4127635;28;20038;-73
2023/12/13 00:24:50;;;;;;;6.20;2.20;;;;;;;9.87;84.73;99117.66;4132311;28;20046;-73
2023/12/13 00:26:53;;;;;;;5.20;1.77;;;;;;;9.88;84.54;99116.81;4114461;28;20066;-73
2023/12/13 00:28:56;;;;;;;4.05;1.60;;;;;;;9.86;84.52;99113.34;4113542;28;20066;-73
2023/12/13 00:31:00;;;;;;;6.88;2.42;;;;;;;9.86;84.83;99115.97;4126783;28;20030;-73
2023/12/13 00:33:03;;;;;;;7.57;2.35;;;;;;;9.89;84.89;99115.94;4114478;28;20035;-73
2023/12/13 00:35:07;;;;;;;7.03;2.63;;;;;;;9.88;84.39;99109.88;4131463;28;20519;-73
2023/12/13 00:37:11;;;;;;;8.27;2.20;;;;;;;9.86;85.11;99110.75;4113508;28;20476;-73
2023/12/13 00:39:15;;;;;;;8.38;2.78;;;;;;;9.85;85.28;99109.03;4145297;28;20499;-73
2023/12/13 00:41:18;;;;;;;5.72;2.55;;;;;;;9.89;84.78;99100.38;4110225;28;20039;-73
2023/12/13 00:43:21;;;;;;;5.85;2.10;;;;;;;9.91;85.00;99101.22;4131614;28;20030;-73
2023/12/13 00:45:24;;;;;;;7.55;2.30;;;;;;;9.90;84.91;99096.88;4130617;28;20065;-73
2023/12/13 00:47:27;;;;;;;9.43;2.28;;;;;;;10.01;84.83;99095.09;4111734;28;20476;-73
2023/12/13 00:49:30;;;;;;;4.53;1.80;;;;;;;9.93;84.28;99096.88;4128127;28;20101;-73
2023/12/13 00:51:33;;;;;;;5.78;2.05;;;;;;;9.90;84.62;99097.75;4128983;28;20042;-73
2023/12/13 00:53:38;;;;;;;5.78;2.45;;;;;;;9.96;84.41;99099.47;4131455;28;20038;-74
2023/12/13 00:55:42;;;;;;;7.72;1.70;;;;;;;9.74;85.25;99096.97;4114005;28;20449;-72
2023/12/13 00:57:45;;;;;;;7.10;2.83;;;;;;;9.73;85.35;99095.22;4113365;28;20047;-72
2023/12/13 00:59:48;;;;;;;8.18;1.95;;;;;;;9.78;85.69;99101.28;4126761;28;20100;-72
2023/12/13 01:01:51;;;;;;;6.43;1.95;;;;;;;9.92;84.74;99095.16;4129490;28;20053;-72
2023/12/13 01:03:54;;;;;;;5.47;2.30;;;;;;;9.90;84.57;99091.69;4130889;28;20034;-72
2023/12/13 01:05:58;;;;;;;4.82;1.42;;;;;;;9.95;84.71;99100.31;4130930;28;20046;-72
2023/12/13 01:08:01;;;;;;;7.32;1.60;;;;;;;9.93;84.33;99100.34;4126932;28;20047;-72
2023/12/13 01:10:06;;;;;;;7.00;1.63;;;;;;;9.90;84.64;99105.53;4124100;28;20038;-72
2023/12/13 01:12:09;;;;;;;4.55;1.70;;;;;;;9.88;85.07;99101.22;4131207;28;20117;-72
2023/12/13 01:14:12;;;;;;;3.88;1.25;;;;;;;9.85;84.74;99106.44;4130011;28;20042;-72
2023/12/13 01:16:16;;;;;;;5.57;1.60;;;;;;;9.83;84.05;99105.56;4129347;28;20046;-73
2023/12/13 01:18:18;;;;;;;8.25;1.50;;;;;;;9.77;84.61;99101.28;4128676;28;20372;-73
2023/12/13 01:20:22;;;;;;;5.28;1.30;;;;;;;9.70;84.38;99103.03;4131167;28;20062;-74
2023/12/13 01:22:25;;;;;;;4.35;1.45;;;;;;;9.70;84.62;99109.97;4115091;28;20062;-73
2023/12/13 01:24:28;;;;;;;7.35;1.15;;;;;;;9.73;84.60;99105.63;4130626;28;20034;-70
2023/12/13 01:26:32;;;;;;;8.90;1.67;;;;;;;9.83;84.45;99105.56;4131371;28;20429;-71
2023/12/13 01:28:35;;;;;;;4.10;1.02;;;;;;;9.83;83.82;99116.81;4125058;28;20062;-71
2023/12/13 01:30:37;;;;;;;5.30;1.58;;;;;;;9.90;83.68;99113.34;4130137;28;20498;-71
2023/12/13 01:32:40;;;;;;;6.00;1.42;;;;;;;9.89;83.90;99110.75;4129384;28;20035;-71
2023/12/13 01:34:43;;;;;;;3.50;1.25;;;;;;;9.88;83.67;99115.06;4113511;28;20038;-71
2023/12/13 01:36:46;;;;;;;6.32;1.33;;;;;;;9.88;83.91;99120.25;4130675;28;20089;-71
2023/12/13 01:38:49;;;;;;;7.95;1.90;;;;;;;9.92;83.02;99126.31;4126214;28;20039;-71
2023/12/13 01:40:52;;;;;;;10.82;2.05;;;;;;;9.89;82.82;99116.78;4129633;28;20042;-70
2023/12/13 01:43:23;;;;;;;8.38;1.30;;;;;;;9.89;83.31;99116.78;4131199;28;20038;-70
2023/12/13 01:45:26;;;;;;;3.72;1.20;;;;;;;9.93;83.36;99123.69;4128043;28;20043;-73
2023/12/13 01:47:28;;;;;;;2.85;1.30;;;;;;;9.91;82.56;99121.97;4130570;28;20042;-72
2023/12/13 01:50:21;;;;;;;5.82;1.10;;;;;;;9.90;83.08;99120.25;4129749;28;20452;-72
2023/12/13 01:52:24;;;;;;;3.42;1.10;;;;;;;9.95;82.54;99118.50;4129211;28;20057;-72
2023/12/13 01:54:27;;;;;;;5.80;1.20;;;;;;;9.87;82.43;99113.34;4130074;28;20038;-72
2023/12/13 01:56:30;;;;;;;3.22;1.40;;;;;;;9.83;82.99;99116.81;4130639;28;20121;-72
2023/12/13 01:58:37;;;;;;;4.10;1.30;;;;;;;9.82;83.25;99115.09;4129451;28;20038;-71
2023/12/13 02:00:43;;;;;;;2.05;1.23;;;;;;;9.79;83.40;99121.16;4129576;28;20073;-71
2023/12/13 02:02:48;;;;;;;3.85;0.88;;;;;;;9.82;83.44;99124.63;4130168;28;20049;-72
2023/12/13 02:04:52;;;;;;;9.00;2.58;;;;;;;9.83;83.24;99124.63;4130463;28;20105;-73
2023/12/13 02:06:55;;;;;;;4.15;1.10;;;;;;;9.81;83.61;99118.53;4130225;28;20046;-73
2023/12/13 02:08:58;;;;;;;4.88;1.30;;;;;;;9.81;83.50;99112.50;4130610;28;20049;-73
2023/12/13 02:11:00;;;;;;;3.42;1.30;;;;;;;9.77;83.57;99112.53;4144435;28;20046;-73
2023/12/13 02:13:03;;;;;;;4.40;1.80;;;;;;;9.73;83.74;99100.41;4129670;28;20485;-73
2023/12/13 02:15:10;;;;;;;4.93;1.23;;;;;;;9.72;83.39;99103.88;4129405;28;20039;-72
2023/12/13 02:17:13;;;;;;;3.25;1.67;;;;;;;9.71;83.95;99102.16;4127534;28;20049;-72
2023/12/13 02:19:16;;;;;;;4.15;1.60;;;;;;;9.79;82.71;99097.78;4130356;28;20412;-72
2023/12/13 02:21:19;;;;;;;4.90;1.67;;;;;;;9.69;83.09;99101.28;4129822;28;20034;-72
2023/12/13 02:23:22;;;;;;;3.88;1.52;;;;;;;9.75;83.22;99100.41;4129787;28;20030;-72
2023/12/13 02:25:33;;;;;;;5.50;1.38;;;;;;;9.72;82.78;99098.69;4129485;28;20049;-72
2023/12/13 02:27:36;;;;;;;4.75;1.27;;;;;;;9.64;83.61;99095.28;4129244;28;20411;-72
2023/12/13 02:29:38;;;;;;;3.63;1.25;;;;;;;9.68;83.02;99086.63;4129835;28;20034;-71
2023/12/13 02:31:42;;;;;;;7.80;1.75;;;;;;;9.69;83.37;99087.47;4129553;28;20485;-71
2023/12/13 02:33:44;;;;;;;1.98;1.05;;;;;;;9.64;83.19;99087.50;4129779;28;20085;-72
2023/12/13 02:35:47;;;;;;;6.82;1.40;;;;;;;9.61;83.50;99090.97;4111479;28;20575;-71
2023/12/13 02:37:51;;;;;;;7.60;1.10;;;;;;;9.59;83.29;99091.81;4129734;28;20038;-72
2023/12/13 02:39:56;;;;;;;2.20;1.00;;;;;;;9.63;83.34;99088.34;4128339;28;20085;-71
2023/12/13 02:41:59;;;;;;;3.00;1.10;;;;;;;9.69;82.93;99083.13;4113817;28;20544;-71
2023/12/13 02:44:02;;;;;;;2.17;0.90;;;;;;;9.66;83.76;99083.16;4127152;28;20038;-72
2023/12/13 02:46:06;;;;;;;5.55;1.65;;;;;;;9.63;83.72;99083.16;4109154;28;20711;-71
2023/12/13 02:48:09;;;;;;;3.10;0.88;;;;;;;9.62;83.32;99081.44;4129146;28;20042;-71
2023/12/13 02:50:12;;;;;;;3.95;1.30;;;;;;;9.60;83.99;99088.38;4111787;28;20408;-71
2023/12/13 02:52:15;;;;;;;3.50;1.13;;;;;;;9.63;84.13;99095.28;4130406;28;20121;-71
2023/12/13 02:54:19;;;;;;;4.80;1.10;;;;;;;9.63;84.11;99083.16;4129422;28;20042;-71
2023/12/13 02:56:24;;;;;;;2.92;0.88;;;;;;;9.61;84.12;99080.59;4127007;28;20425;-72
2023/12/13 02:58:26;;;;;;;3.67;1.38;;;;;;;9.64;83.97;99081.41;4129108;28;20065;-72
2023/12/13 03:00:48;;;;;;;3.72;1.00;;;;;;;9.55;83.50;99080.63;4128738;28;20784;-72
2023/12/13 03:02:51;;;;;;;2.33;0.95;;;;;;;9.55;83.76;99085.81;4129170;28;20046;-71
2023/12/13 03:04:54;;;;;;;5.32;1.08;;;;;;;9.57;83.27;99084.06;4128974;28;20053;-71
2023/12/13 03:06:57;;;;;;;2.78;1.33;;;;;;;9.57;83.85;99078.00;4129458;28;20434;-71
2023/12/13 03:09:00;;;;;;;5.65;1.77;;;;;;;9.60;83.54;99071.06;4129548;28;20093;-71
2023/12/13 03:11:02;;;;;;;3.70;0.82;;;;;;;9.63;83.87;99071.94;4127933;28;20046;-72
2023/12/13 03:13:07;;;;;;;1.80;0.90;;;;;;;9.60;83.08;99065.03;4128915;28;20062;-71
2023/12/13 03:15:09;;;;;;;5.07;0.95;;;;;;;9.62;83.47;99055.50;4128876;28;20104;-72
2023/12/13 03:17:12;;;;;;;3.53;1.20;;;;;;;9.68;82.50;99059.78;4129344;28;20378;-72
2023/12/13 03:19:17;;;;;;;2.67;0.90;;;;;;;9.66;83.12;99054.59;4129522;28;20048;-73
2023/12/13 03:21:20;;;;;;;1.52;0.90;;;;;;;9.61;82.87;99052.03;4127723;28;20045;-73
2023/12/13 03:23:21;;;;;;;3.38;1.10;;;;;;;9.66;83.17;99049.41;4114726;28;20464;-72
2023/12/13 03:25:24;;;;;;;7.05;1.20;;;;;;;9.64;82.92;99052.88;4113724;28;20437;-72
2023/12/13 03:27:28;;;;;;;3.50;0.88;;;;;;;9.58;82.87;99059.00;4130099;28;20132;-72
2023/12/13 03:29:32;;;;;;;4.47;1.15;;;;;;;9.57;83.00;99060.69;4113687;28;20134;-72
2023/12/13 03:31:35;;;;;;;3.47;1.08;;;;;;;9.62;82.43;99050.28;4128881;28;20061;-72
2023/12/13 03:33:37;;;;;;;4.38;1.10;;;;;;;9.54;83.02;99046.91;4111985;28;20035;-72
2023/12/13 03:35:40;;;;;;;4.50;1.60;;;;;;;9.50;83.75;99053.81;4112740;28;20386;-72
2023/12/13 03:37:44;;;;;;;2.83;1.25;;;;;;;9.50;83.87;99050.38;4130110;28;20145;-71
2023/12/13 03:39:47;;;;;;;6.45;1.45;;;;;;;9.50;83.68;99043.44;4129343;28;20145;-71
2023/12/13 03:41:50;;;;;;;3.35;1.00;;;;;;;9.55;83.39;99044.28;4111664;28;20047;-71
2023/12/13 03:43:53;;;;;;;4.30;0.85;;;;;;;9.53;83.32;99043.41;4126894;28;20073;-71
2023/12/13 03:45:57;;;;;;;4.80;1.48;;;;;;;9.60;83.08;99045.13;4128709;28;20129;-71
2023/12/13 03:48:00;;;;;;;2.30;1.00;;;;;;;9.51;82.81;99042.56;4129498;28;20045;-71
2023/12/13 03:50:04;;;;;;;2.33;0.70;;;;;;;9.53;83.22;99042.56;4110237;28;20047;-71
2023/12/13 03:52:08;;;;;;;2.35;0.90;;;;;;;9.49;83.03;99043.44;4129239;28;20539;-71
2023/12/13 03:54:11;;;;;;;4.75;0.95;;;;;;;9.44;83.63;99044.31;4112129;28;20063;-71
2023/12/13 03:56:14;;;;;;;4.32;1.20;;;;;;;9.48;83.10;99041.75;4126816;28;20109;-71
2023/12/13 03:58:16;;;;;;;4.68;0.98;;;;;;;9.51;82.66;99037.38;4131053;28;20074;-71
2023/12/13 04:00:20;;;;;;;3.35;0.77;;;;;;;9.45;82.94;99034.81;4129089;28;20074;-72
2023/12/13 04:02:24;;;;;;;6.95;1.17;;;;;;;9.44;83.17;99025.31;4132087;28;20069;-72
2023/12/13 04:04:27;;;;;;;6.68;1.00;;;;;;;9.38;83.70;99023.59;4146977;28;20129;-72
2023/12/13 04:06:30;;;;;;;3.47;1.20;;;;;;;9.36;83.77;99032.25;4132531;28;20072;-71
2023/12/13 04:08:33;;;;;;;3.75;1.00;;;;;;;9.35;83.54;99028.81;4132463;28;20038;-71
2023/12/13 04:10:35;;;;;;;6.20;1.20;;;;;;;9.37;83.80;99032.25;4131373;28;20038;-72
2023/12/13 04:12:38;;;;;;;2.88;0.90;;;;;;;9.27;83.73;99033.16;4130573;28;20377;-72
2023/12/13 04:14:40;;;;;;;3.50;0.82;;;;;;;9.32;83.65;99026.22;4113008;28;20501;-72
2023/12/13 04:16:43;;;;;;;3.33;1.00;;;;;;;9.34;83.64;99026.22;4113848;28;20094;-72
2023/12/13 04:18:48;;;;;;;5.10;1.13;;;;;;;9.33;84.08;99021.88;4132068;28;20487;-72
2023/12/13 04:20:50;;;;;;;4.57;1.23;;;;;;;9.31;83.75;99023.63;4130509;28;20034;-71
2023/12/13 04:22:53;;;;;;;2.60;0.80;;;;;;;9.35;83.95;99017.59;4131777;28;20135;-72
2023/12/13 04:24:55;;;;;;;4.65;0.88;;;;;;;9.33;84.18;99025.38;4132116;28;20432;-73
2023/12/13 04:26:58;;;;;;;4.70;0.80;;;;;;;9.20;83.73;99013.28;4112556;28;21514;-72
2023/12/13 04:29:01;;;;;;;6.25;1.35;;;;;;;9.25;83.45;99011.56;4131702;28;20038;-72
2023/12/13 04:31:05;;;;;;;5.75;2.10;;;;;;;9.33;83.37;99002.03;4141252;28;20089;-73
2023/12/13 04:33:07;;;;;;;3.88;1.17;;;;;;;9.33;82.85;99008.94;4147609;28;20068;-73
2023/12/13 04:35:11;;;;;;;4.95;1.40;;;;;;;9.37;83.41;99008.03;4144196;28;20046;-73
2023/12/13 04:37:14;;;;;;;6.70;1.30;;;;;;;9.37;82.94;98998.53;4130413;28;20085;-73
2023/12/13 04:39:17;;;;;;;6.80;1.27;;;;;;;9.35;82.76;99002.03;4114033;28;20038;-71
2023/12/13 04:41:20;;;;;;;2.80;0.82;;;;;;;9.35;82.91;99005.47;4128096;28;20066;-72
2023/12/13 04:43:23;;;;;;;3.63;1.05;;;;;;;9.36;82.90;99011.50;4131220;28;20048;-72
2023/12/13 04:45:26;;;;;;;5.40;1.27;;;;;;;9.37;82.73;99008.03;4128495;28;20045;-72
2023/12/13 04:47:29;;;;;;;3.63;0.93;;;;;;;9.34;82.11;99003.72;4131340;28;20041;-72
2023/12/13 04:49:32;;;;;;;5.82;1.25;;;;;;;9.28;82.20;99001.16;4131398;28;20128;-71
2023/12/13 04:51:35;;;;;;;6.47;1.23;;;;;;;9.22;82.95;99007.25;4129117;28;20031;-71
2023/12/13 04:53:38;;;;;;;6.88;1.58;;;;;;;9.23;82.71;99003.78;4129351;28;20054;-72
2023/12/13 04:55:41;;;;;;;3.95;1.23;;;;;;;9.21;82.40;98996.88;4115983;28;20046;-71
2023/12/13 04:57:44;;;;;;;4.18;0.95;;;;;;;9.17;82.74;99006.41;4130984;28;20038;-71
2023/12/13 04:59:47;;;;;;;3.30;0.80;;;;;;;9.16;83.03;99003.81;4131212;28;20770;-72
2023/12/13 05:01:50;;;;;;;3.90;1.00;;;;;;;9.14;83.06;99009.03;4133244;28;20072;-72
2023/12/13 05:03:53;;;;;;;4.30;1.10;;;;;;;9.18;83.46;99002.94;4130111;28;20069;-72
2023/12/13 05:05:56;;;;;;;2.35;0.80;;;;;;;9.19;82.88;98996.03;4131561;28;20058;-72
2023/12/13 05:08:01;;;;;;;4.30;0.98;;;;;;;9.17;83.15;98995.16;4113401;28;20727;-73
2023/12/13 05:10:06;;;;;;;5.88;1.45;;;;;;;9.19;83.04;98998.63;4127795;28;20042;-71
2023/12/13 05:12:09;;;;;;;6.60;1.30;;;;;;;9.20;83.51;98995.13;4131706;28;20405;-71
2023/12/13 05:14:12;;;;;;;2.58;0.88;;;;;;;9.21;83.64;98986.50;4132338;28;20052;-71
2023/12/13 05:16:15;;;;;;;3.13;0.93;;;;;;;9.26;83.28;98989.94;4125496;28;20038;-71
2023/12/13 05:18:18;;;;;;;6.82;1.50;;;;;;;9.24;83.35;98981.31;4128791;28;20049;-70
2023/12/13 05:20:23;;;;;;;;;;;;;;;9.16;83.34;98988.28;4129914;28;20042;-70
2023/12/13 05:22:26;;;;;;;4.60;1.35;;;;;;;9.16;83.04;98983.94;4130132;28;19930;-70
2023/12/13 05:24:30;;;;;;;4.05;1.08;;;;;;;9.19;83.11;98988.25;4122649;28;20089;-70
2023/12/13 05:26:35;;;;;;;5.25;1.17;;;;;;;9.23;82.89;98992.56;4129656;28;20061;-70
2023/12/13 05:28:38;;;;;;;4.25;1.15;;;;;;;9.22;83.19;98988.25;4129374;28;20065;-70
2023/12/13 05:30:41;;;;;;;2.83;1.17;;;;;;;9.28;83.44;98977.84;4129503;28;20042;-70
2023/12/13 05:32:43;;;;;;;2.70;0.98;;;;;;;9.25;82.98;98985.63;4130730;28;20038;-70
2023/12/13 05:34:46;;;;;;;4.38;1.15;;;;;;;9.25;83.10;98978.69;4107369;28;20129;-71
2023/12/13 05:36:49;;;;;;;8.10;1.83;;;;;;;9.23;83.59;98989.97;4114251;28;20042;-71
2023/12/13 05:38:51;;;;;;;3.10;1.10;;;;;;;9.25;83.24;98993.41;4126463;28;20156;-71
2023/12/13 05:40:57;;;;;;;2.20;0.90;;;;;;;9.29;83.49;98984.75;4119801;28;20046;-71
2023/12/13 05:43:00;;;;;;;6.00;1.10;;;;;;;9.29;82.88;98984.75;4128668;28;20404;-71
2023/12/13 05:45:04;;;;;;;7.32;1.20;;;;;;;9.30;82.81;98970.94;4124187;28;20039;-71
2023/12/13 05:47:07;;;;;;;5.45;1.35;;;;;;;9.20;82.54;98964.91;4128724;28;20484;-71
2023/12/13 05:49:10;;;;;;;5.25;1.35;;;;;;;9.18;83.07;98965.78;4125542;28;20039;-71
2023/12/13 05:51:14;;;;;;;;;;;;;;;9.06;82.97;98964.09;4129090;28;20049;-71
2023/12/13 05:53:18;;;;;;;8.65;0.95;;;;;;;9.03;83.21;98961.53;4109889;28;19922;-71
2023/12/13 05:55:21;;;;;;;5.57;1.30;;;;;;;9.06;83.39;98970.13;4133791;28;20512;-71
2023/12/13 05:57:25;;;;;;;5.07;1.35;;;;;;;9.10;83.63;98971.00;4127410;28;20052;-71
2023/12/13 05:59:28;;;;;;;3.90;1.30;;;;;;;9.12;83.40;98977.03;4126125;28;20038;-70
2023/12/13 06:01:31;;;;;;;1.27;0.70;;;;;;;9.13;83.58;98967.53;4126396;28;20038;-71
2023/12/13 06:03:34;;;;;;;3.45;0.80;;;;;;;9.17;83.43;98974.41;4144668;28;20041;-71
2023/12/13 06:05:37;;;;;;;4.25;1.35;;;;;;;9.19;83.11;98973.53;4130523;28;20042;-71
2023/12/13 06:07:40;;;;;;;3.45;1.00;;;;;;;9.20;83.32;98977.88;4132260;28;20089;-71
2023/12/13 06:09:44;;;;;;;4.15;0.93;;;;;;;9.21;83.20;98976.13;4116676;28;20069;-71
2023/12/13 06:11:47;;;;;;;5.28;1.30;;;;;;;9.19;82.88;98978.72;4128200;28;20076;-71
2023/12/13 06:13:51;;;;;;;3.90;1.30;;;;;;;9.19;83.25;98972.69;4126788;28;20060;-71
2023/12/13 06:15:54;;;;;;;5.18;1.95;;;;;;;9.18;83.14;98970.97;4131288;28;20070;-71
2023/12/13 06:17:57;;;;;;;2.90;1.63;;;;;;;9.18;83.35;98965.78;4139014;28;20128;-71
2023/12/13 06:20:00;;;;;;;2.20;1.25;;;;;;;9.21;83.09;98970.94;4131588;28;20112;-71
2023/12/13 06:22:04;;;;;;;5.88;1.45;;;;;;;9.20;83.70;98977.00;4128892;28;20078;-71
2023/12/13 06:24:07;;;;;;;4.65;1.30;;;;;;;9.20;83.52;98970.09;4132189;28;20476;-70
2023/12/13 06:26:10;;;;;;;3.42;1.20;;;;;;;9.24;83.27;98965.75;4131992;28;20399;-70
2023/12/13 06:28:12;;;;;;;3.60;1.58;;;;;;;9.23;83.00;98971.81;4130937;28;20042;-70
2023/12/13 06:30:17;;;;;;;4.65;1.50;;;;;;;9.25;83.23;98972.66;4131490;28;20043;-70
2023/12/13 06:32:20;;;;;;;6.28;1.65;;;;;;;9.22;83.21;98972.69;4130876;28;20053;-70
2023/12/13 06:34:22;;;;;;;6.45;1.70;;;;;;;9.20;82.79;98964.03;4130507;28;20042;-71
2023/12/13 06:36:25;;;;;;;9.93;2.10;;;;;;;9.17;82.89;98964.03;4131916;28;20076;-71
2023/12/13 06:38:28;;;;;;;6.32;1.77;;;;;;;9.12;83.11;98960.63;4131069;28;20456;-70
2023/12/13 06:40:31;;;;;;;4.68;1.80;;;;;;;9.12;83.59;98965.81;4131219;28;20042;-71
2023/12/13 06:42:34;;;;;;;6.13;1.80;;;;;;;9.14;83.32;98964.94;4131898;28;20038;-71
2023/12/13 06:44:38;;;;;;;5.10;1.88;;;;;;;9.15;83.42;98958.00;4130021;28;20125;-70
2023/12/13 06:46:41;;;;;;;8.40;2.15;;;;;;;9.13;83.40;98962.34;4129220;28;20117;-71
2023/12/13 06:48:44;;;;;;;5.97;2.00;;;;;;;9.11;83.49;98959.75;4129237;28;20049;-71
2023/12/13 06:50:48;;;;;;;5.80;2.47;;;;;;;9.13;83.37;98964.94;4128847;28;20042;-71
2023/12/13 06:52:51;;;;;;;4.30;1.70;;;;;;;9.15;83.14;98960.59;4115613;28;20112;-70
2023/12/13 06:54:54;;;;;;;4.07;1.60;;;;;;;9.14;83.25;98962.34;4126261;28;20054;-71
2023/12/13 06:56:57;;;;;;;3.22;1.33;;;;;;;9.14;83.18;98954.56;4125282;28;20097;-71
2023/12/13 06:59:00;;;;;;;4.88;1.75;;;;;;;9.13;83.26;98949.41;4137697;28;20521;-71
2023/12/13 07:01:04;;;;;;;3.55;1.65;;;;;;;9.16;83.32;98957.16;4127955;28;20038;-71
2023/12/13 07:03:08;;;;;;;3.85;1.65;;;;;;;9.09;83.22;98954.56;4131159;28;20050;-71
2023/12/13 07:05:12;;;;;;;3.03;1.88;;;;;;;9.02;83.65;98960.66;4115440;28;20051;-71
2023/12/13 07:07:15;;;;;;;2.63;1.38;;;;;;;9.00;83.38;98959.78;4135538;28;20076;-71
2023/12/13 07:09:19;;;;;;;3.05;1.33;;;;;;;9.02;83.77;98949.41;4131296;28;20062;-71
2023/12/13 07:11:24;;;;;;;4.07;1.70;;;;;;;8.96;83.52;98947.72;4122249;28;20105;-71
2023/12/13 07:13:31;;;;;;;4.25;1.80;;;;;;;8.94;83.21;98941.69;4122771;28;20133;-70
2023/12/13 07:15:34;;;;;;;3.15;1.60;;;;;;;8.92;83.44;98948.59;4129045;28;20062;-71
2023/12/13 07:17:35;;;;;;;5.05;1.50;;;;;;;8.88;83.65;98945.16;4130402;28;20587;-71
2023/12/13 07:19:40;;;;;;;5.88;1.95;;;;;;;8.87;83.42;98942.56;4130715;28;20048;-71
2023/12/13 07:21:44;;;;;;;6.25;1.92;;;;;;;8.88;83.27;98952.09;4130286;28;20069;-71
2023/12/13 07:23:48;;;;;;;4.90;1.73;;;;;;;8.94;83.15;98941.69;4130822;28;20429;-71
2023/12/13 07:25:50;;;;;;;4.45;1.63;;;;;;;8.88;83.10;98947.75;4130907;28;20411;-71
2023/12/13 07:27:53;;;;;;;7.07;2.75;;;;;;;8.88;82.75;98952.09;4130427;28;20045;-70
2023/12/13 07:29:56;;;;;;;4.63;2.08;;;;;;;8.90;82.99;98950.34;4129826;28;20128;-71
2023/12/13 07:31:59;;;;;;;2.38;1.67;;;;;;;8.87;82.52;98958.13;4121701;28;20064;-71
2023/12/13 07:34:03;;;;;;;5.18;2.22;;;;;;;8.89;82.56;98951.19;4130191;28;20038;-71
2023/12/13 07:36:08;;;;;;;4.25;2.28;;;;;;;8.88;82.52;98947.75;4129121;28;20041;-71
2023/12/13 07:38:11;;;;;;;5.82;2.20;;;;;;;8.87;82.90;98955.53;4129809;28;20042;-70
2023/12/13 07:40:14;;;;;;;3.33;1.60;;;;;;;8.84;82.73;98951.22;4128994;28;20046;-71
2023/12/13 07:42:17;;;;;;;5.85;3.05;;;;;;;8.87;82.88;98960.72;4119668;28;20034;-71
2023/12/13 07:44:20;;;;;;;8.32;2.25;;;;;;;8.87;82.97;98961.56;4121547;28;20129;-71
2023/12/13 07:46:23;;;;;;;4.15;2.15;;;;;;;8.90;83.37;98951.19;4124677;28;20068;-71
2023/12/13 07:48:26;;;;;;;5.75;2.75;;;;;;;8.89;83.40;98943.41;4126014;28;20396;-71
2023/12/13 07:50:33;;;;;;;7.88;2.50;;;;;;;8.91;83.20;98941.69;4129498;28;20064;-71
2023/12/13 07:52:37;;;;;;;5.85;3.15;;;;;;;8.91;83.61;98950.31;4131038;28;20031;-71
2023/12/13 07:54:40;;;;;;;5.15;2.53;;;;;;;8.93;83.76;98944.28;4130318;28;20038;-71
2023/12/13 07:56:45;;;;;;;4.53;2.40;;;;;;;8.97;83.41;98946.00;4130013;28;20066;-71
2023/12/13 07:58:48;;;;;;;7.85;2.58;;;;;;;8.95;83.43;98942.53;4127922;28;20061;-71
2023/12/13 08:00:51;;;;;;;6.65;2.80;;;;;;;9.00;83.22;98946.84;4125557;28;20038;-71
2023/12/13 08:02:54;;;;;;;4.30;2.45;;;;;;;8.98;83.83;98950.28;4123092;28;20101;-71
2023/12/13 08:04:56;;;;;;;6.72;2.55;;;;;;;9.00;83.87;98946.84;4126922;28;20046;-71
2023/12/13 08:06:59;;;;;;;3.85;2.00;;;;;;;9.04;83.89;98952.88;4128697;28;20093;-71
2023/12/13 08:09:04;;;;;;;7.55;2.97;;;;;;;9.09;83.81;98951.97;4131121;28;20042;-71
2023/12/13 08:11:07;;;;;;;7.25;2.88;;;;;;;9.11;83.50;98946.78;4138216;28;20133;-71
2023/12/13 08:13:10;;;;;;;7.43;2.90;;;;;;;9.09;83.95;98944.19;4131255;28;20479;-71
2023/12/13 08:15:13;;;;;;;6.63;3.28;;;;;;;9.11;84.25;98945.94;4130160;28;20129;-71
2023/12/13 08:17:17;;;;;;;4.78;2.63;;;;;;;9.09;83.77;98956.31;4130799;28;20038;-71
2023/12/13 08:19:20;;;;;;;7.55;3.17;;;;;;;9.11;83.68;98948.53;4131017;28;20117;-71
2023/12/13 08:21:24;;;;;;;5.85;2.42;;;;;;;9.12;83.70;98937.28;4128006;28;20038;-70
2023/12/13 08:23:27;;;;;;;4.70;2.58;;;;;;;9.17;83.61;98936.41;4127551;28;20081;-71
2023/12/13 08:25:31;;;;;;;7.75;2.85;;;;;;;9.20;83.74;98933.78;4128511;28;20042;-71
2023/12/13 08:27:34;;;;;;;4.45;2.97;;;;;;;9.22;83.59;98929.44;4115885;28;20512;-71
2023/12/13 08:29:38;;;;;;;6.50;2.17;;;;;;;9.24;83.88;98927.72;4126091;28;20045;-71
2023/12/13 08:31:41;;;;;;;4.38;2.50;;;;;;;9.31;84.07;98928.53;4108110;28;20047;-71
2023/12/13 08:33:44;;;;;;;8.18;2.55;;;;;;;9.39;83.80;98924.19;4110937;28;20103;-71
2023/12/13 08:35:47;;;;;;;3.88;2.05;;;;;;;9.49;83.09;98934.50;4128119;28;20572;-71
2023/12/13 08:37:50;;;;;;;6.28;2.45;;;;;;;9.42;83.94;98934.53;4127330;28;20130;-71
2023/12/13 08:39:53;;;;;;;3.42;2.00;;;;;;;9.37;83.43;98941.47;4127265;28;20046;-72
2023/12/13 08:41:57;;;;;;;9.05;2.10;;;;;;;9.41;83.57;98938.00;4128859;28;20477;-71
2023/12/13 08:44:00;;;;;;;5.30;1.75;;;;;;;9.43;84.28;98945.75;4112013;28;20078;-71
2023/12/13 08:46:04;;;;;;;6.28;1.98;;;;;;;9.49;83.70;98939.69;4126387;28;20038;-70
2023/12/13 08:48:07;;;;;;;5.30;1.55;;;;;;;9.38;83.63;98938.00;4131380;28;20685;-71
2023/12/13 08:50:10;;;;;;;6.45;2.08;;;;;;;9.40;83.86;98941.47;4129337;28;20043;-71
2023/12/13 08:52:15;;;;;;;6.72;1.80;;;;;;;9.38;84.01;98940.59;4113732;28;20039;-71
2023/12/13 08:54:18;;;;;;;3.60;1.60;;;;;;;9.29;84.01;98945.84;4132720;28;20038;-71
2023/12/13 08:56:20;;;;;;;3.50;1.40;;;;;;;9.30;83.66;98952.78;4131337;28;20080;-71
2023/12/13 08:58:24;;;;;;;2.65;1.35;;;;;;;9.24;84.00;98957.97;4130877;28;20520;-71
2023/12/13 09:00:27;;;;;;;4.85;1.58;;;;;;;9.25;84.19;98957.09;4128444;28;20039;-71
2023/12/13 09:02:30;;;;;;;1.85;1.25;;;;;;;9.33;83.70;98950.16;4131846;28;20401;-71
2023/12/13 09:04:34;;;;;;;6.75;2.20;;;;;;;9.33;83.68;98944.97;4131682;28;20485;-71
2023/12/13 09:06:37;;;;;;;5.68;1.52;;;;;;;9.28;84.17;98954.50;4129608;28;20042;-71
2023/12/13 09:08:40;;;;;;;4.47;1.40;;;;;;;9.28;83.78;98948.47;4128624;28;20069;-71
2023/12/13 09:10:43;;;;;;;3.72;1.52;;;;;;;9.33;83.87;98941.50;4130270;28;20093;-71
2023/12/13 09:12:46;;;;;;;8.15;2.10;;;;;;;9.29;83.84;98951.03;4131350;28;20050;-71
2023/12/13 09:14:50;;;;;;;5.53;1.80;;;;;;;9.29;84.36;98943.25;4132221;28;20485;-71
2023/12/13 09:16:53;;;;;;;2.00;1.10;;;;;;;9.30;84.20;98949.28;4114414;28;20045;-71
2023/12/13 09:18:56;;;;;;;5.20;1.77;;;;;;;9.28;84.40;98949.31;4130432;28;20092;-71
2023/12/13 09:20:58;;;;;;;7.72;1.50;;;;;;;9.26;83.98;98951.06;4129898;28;20034;-71
2023/12/13 09:23:01;;;;;;;7.53;1.63;;;;;;;9.28;83.83;98951.06;4128550;28;20042;-71
2023/12/13 09:25:05;;;;;;;5.53;1.35;;;;;;;9.25;83.22;98962.28;4129879;28;20042;-71
2023/12/13 09:27:08;;;;;;;2.70;1.00;;;;;;;9.24;83.52;98960.56;4133219;28;20034;-71
2023/12/13 09:29:11;;;;;;;6.60;1.98;;;;;;;9.24;83.87;98956.25;4130617;28;20040;-71
2023/12/13 09:31:15;;;;;;;5.32;1.58;;;;;;;9.35;83.80;98952.75;4130155;28;20069;-71
2023/12/13 09:33:18;;;;;;;4.40;1.50;;;;;;;9.46;83.44;98963.91;4131243;28;20041;-71
2023/12/13 09:35:20;;;;;;;3.45;1.10;;;;;;;9.49;84.08;98960.44;4130356;28;20042;-71
2023/12/13 09:37:23;;;;;;;2.95;1.50;;;;;;;9.56;84.01;98962.13;4124184;28;20074;-71
2023/12/13 09:39:25;;;;;;;5.03;1.52;;;;;;;9.71;84.14;98961.16;4130101;28;20035;-70
2023/12/13 09:41:36;;;;;;;5.45;1.70;;;;;;;9.99;84.83;98953.19;4127263;28;20030;-65
2023/12/13 09:43:42;;;;;;;3.97;1.50;;;;;;;10.20;84.75;98955.59;4128537;28;20053;-71
2023/12/13 10:05:10;;;;;;;5.78;2.03;;;;;;;10.49;82.77;98964.91;4244080;27;20363;-69
2023/12/13 10:07:14;;;;;;;3.55;1.27;;;;;;;10.48;82.76;98970.97;4225036;28;20089;-70